createdAt,value
2022-10-21T00:00:16.492Z,0
2022-10-21T00:01:16.624Z,0
2022-10-21T00:02:16.756Z,0
2022-10-21T00:03:16.884Z,0.47
2022-10-21T00:04:17.011Z,0.83
2022-10-21T00:05:17.140Z,0
2022-10-21T00:06:17.261Z,0
2022-10-21T00:07:17.385Z,0
2022-10-21T00:08:17.511Z,0
2022-10-21T00:09:17.640Z,0.5
2022-10-21T00:10:17.771Z,0.25
2022-10-21T00:11:17.896Z,0.33
2022-10-21T00:12:18.018Z,0
2022-10-21T00:13:18.137Z,0
2022-10-21T00:14:18.263Z,0
2022-10-21T00:15:18.386Z,0
2022-10-21T00:16:18.510Z,0
2022-10-21T00:17:18.633Z,0.47
2022-10-21T00:18:18.778Z,0
2022-10-21T00:19:18.902Z,1.15
2022-10-21T00:20:19.253Z,0.21
2022-10-21T00:21:19.433Z,0
2022-10-21T00:22:19.560Z,0
2022-10-21T00:23:19.685Z,0
2022-10-21T00:24:19.807Z,0
2022-10-21T00:25:19.937Z,0
2022-10-21T00:26:20.063Z,1.22
2022-10-21T00:27:20.187Z,1.06
2022-10-21T00:28:20.317Z,0.91
2022-10-21T00:29:26.543Z,0.15
2022-10-21T00:30:26.672Z,0
2022-10-21T00:31:26.797Z,0
2022-10-21T00:32:26.922Z,0
2022-10-21T00:33:27.051Z,0
2022-10-21T00:34:31.216Z,0.22
2022-10-21T00:35:31.342Z,0
2022-10-21T00:36:31.465Z,0.5
2022-10-21T00:37:31.593Z,0.54
2022-10-21T00:38:31.731Z,0.12
2022-10-21T00:39:31.853Z,0
2022-10-21T00:40:31.980Z,0
2022-10-21T00:41:32.103Z,0.41
2022-10-21T00:42:32.228Z,0.22
2022-10-21T00:43:32.355Z,0.22
2022-10-21T00:44:32.474Z,0.12
2022-10-21T00:45:32.599Z,0
2022-10-21T00:46:32.727Z,0
2022-10-21T00:47:32.853Z,0
2022-10-21T00:48:32.985Z,0
2022-10-21T00:49:33.109Z,0
2022-10-21T00:50:40.282Z,0
2022-10-21T00:51:42.654Z,0
2022-10-21T00:52:42.794Z,0
2022-10-21T00:53:42.931Z,0
2022-10-21T00:54:43.066Z,0
2022-10-21T00:55:43.194Z,0
2022-10-21T00:56:43.440Z,0
2022-10-21T00:57:43.575Z,0
2022-10-21T00:58:43.709Z,0
2022-10-21T00:59:43.835Z,0
2022-10-21T01:00:44.121Z,0
2022-10-21T01:01:44.286Z,0
2022-10-21T01:02:44.409Z,0
2022-10-21T01:03:44.536Z,0
2022-10-21T01:04:44.664Z,0
2022-10-21T01:05:45.091Z,0
2022-10-21T01:06:45.265Z,0
2022-10-21T01:07:46.460Z,0
2022-10-21T01:08:47.053Z,0
2022-10-21T01:09:47.226Z,0
2022-10-21T01:10:47.350Z,0
2022-10-21T01:11:47.483Z,0
2022-10-21T01:12:47.609Z,0
2022-10-21T01:13:47.734Z,0
2022-10-21T01:14:47.862Z,0
2022-10-21T01:15:47.991Z,0
2022-10-21T01:16:48.768Z,0
2022-10-21T01:17:49.767Z,0
2022-10-21T01:18:49.992Z,0
2022-10-21T01:19:50.122Z,0.17
2022-10-21T01:20:50.246Z,0.14
2022-10-21T01:21:50.370Z,0
2022-10-21T01:22:50.498Z,0
2022-10-21T01:23:50.624Z,0
2022-10-21T01:24:50.759Z,0
2022-10-21T01:25:50.900Z,0
2022-10-21T01:26:51.032Z,0
2022-10-21T01:27:51.159Z,0
2022-10-21T01:28:51.285Z,0
2022-10-21T01:29:51.411Z,0.87
2022-10-21T01:30:51.532Z,1
2022-10-21T01:31:51.660Z,0.64
2022-10-21T01:32:51.785Z,0.12
2022-10-21T01:33:51.908Z,0.33
2022-10-21T01:34:52.032Z,0.7
2022-10-21T01:35:52.163Z,0
2022-10-21T01:36:52.286Z,0.54
2022-10-21T01:37:52.538Z,0.25
2022-10-21T01:38:52.668Z,0
2022-10-21T01:39:52.790Z,0.1
2022-10-21T01:40:52.916Z,1.58
2022-10-21T01:41:53.042Z,0.77
2022-10-21T01:42:53.168Z,0
2022-10-21T01:43:53.297Z,0
2022-10-21T01:44:53.423Z,0
2022-10-21T01:45:53.550Z,0.29
2022-10-21T01:46:53.678Z,0
2022-10-21T01:47:53.800Z,0
2022-10-21T01:48:53.922Z,0
2022-10-21T01:49:54.043Z,0
2022-10-21T01:50:54.166Z,0
2022-10-21T01:51:54.290Z,0
2022-10-21T01:52:54.416Z,0
2022-10-21T01:53:54.547Z,0
2022-10-21T01:54:54.674Z,0
2022-10-21T01:55:54.812Z,0
2022-10-21T01:56:54.940Z,0
2022-10-21T01:57:55.067Z,0
2022-10-21T01:58:55.194Z,0
2022-10-21T01:59:55.318Z,0
2022-10-21T02:00:55.852Z,0
2022-10-21T02:01:56.045Z,0
2022-10-21T02:02:56.207Z,0
2022-10-21T02:03:56.333Z,0
2022-10-21T02:04:56.456Z,0
2022-10-21T02:05:56.585Z,0.79
2022-10-21T02:06:56.707Z,0.27
2022-10-21T02:07:56.837Z,0
2022-10-21T02:08:57.176Z,0
2022-10-21T02:09:57.319Z,0
2022-10-21T02:10:57.442Z,0
2022-10-21T02:11:57.567Z,0
2022-10-21T02:12:57.692Z,0
2022-10-21T02:13:57.822Z,0
2022-10-21T02:14:57.948Z,0
2022-10-21T02:15:58.071Z,0
2022-10-21T02:16:58.202Z,0
2022-10-21T02:17:58.328Z,0
2022-10-21T02:18:58.460Z,0
2022-10-21T02:19:58.595Z,0
2022-10-21T02:20:58.724Z,0
2022-10-21T02:21:58.848Z,0
2022-10-21T02:22:58.983Z,0
2022-10-21T02:23:59.112Z,0
2022-10-21T02:24:59.239Z,0
2022-10-21T02:25:59.367Z,0
2022-10-21T02:26:59.495Z,0
2022-10-21T02:27:59.621Z,0
2022-10-21T02:28:59.748Z,0
2022-10-21T02:29:59.876Z,0
2022-10-21T02:31:00.003Z,0
2022-10-21T02:32:00.120Z,0
2022-10-21T02:33:00.246Z,0
2022-10-21T02:34:00.375Z,0
2022-10-21T02:35:00.502Z,0
2022-10-21T02:36:00.621Z,0
2022-10-21T02:37:00.743Z,0
2022-10-21T02:38:00.880Z,0
2022-10-21T02:39:01.008Z,0
2022-10-21T02:40:01.131Z,0
2022-10-21T02:41:01.242Z,0
2022-10-21T02:42:01.361Z,0
2022-10-21T02:43:01.486Z,0
2022-10-21T02:44:01.617Z,0
2022-10-21T02:45:01.738Z,0
2022-10-21T02:46:01.868Z,0
2022-10-21T02:47:02.182Z,0
2022-10-21T02:48:02.320Z,0
2022-10-21T02:49:02.454Z,0
2022-10-21T02:50:02.570Z,0
2022-10-21T02:51:02.698Z,0
2022-10-21T02:52:02.827Z,0
2022-10-21T02:53:02.965Z,0
2022-10-21T02:54:03.110Z,0
2022-10-21T02:55:03.236Z,0
2022-10-21T02:56:03.364Z,0
2022-10-21T02:57:03.502Z,0
2022-10-21T02:58:03.634Z,0
2022-10-21T02:59:03.780Z,0
2022-10-21T03:00:03.899Z,0
2022-10-21T03:01:04.223Z,0
2022-10-21T03:02:04.366Z,0
2022-10-21T03:03:04.505Z,0
2022-10-21T03:04:04.632Z,0
2022-10-21T03:05:04.771Z,0
2022-10-21T03:06:04.905Z,0
2022-10-21T03:07:05.034Z,0
2022-10-21T03:08:05.161Z,0
2022-10-21T03:09:05.709Z,0.14
2022-10-21T03:10:05.872Z,0
2022-10-21T03:11:06.043Z,0
2022-10-21T03:12:06.168Z,0
2022-10-21T03:13:06.293Z,0
2022-10-21T03:14:06.417Z,0
2022-10-21T03:15:06.555Z,0
2022-10-21T03:16:06.870Z,0
2022-10-21T03:17:07.074Z,0
2022-10-21T03:18:07.201Z,0.22
2022-10-21T03:19:07.324Z,0
2022-10-21T03:20:07.453Z,0
2022-10-21T03:21:07.578Z,0
2022-10-21T03:22:07.709Z,0.47
2022-10-21T03:23:07.836Z,0
2022-10-21T03:24:29.100Z,0
2022-10-21T03:25:35.982Z,0
2022-10-21T03:26:36.120Z,0
2022-10-21T03:27:36.257Z,0
2022-10-21T03:28:36.383Z,0
2022-10-21T03:29:36.506Z,0
2022-10-21T03:30:36.638Z,0
2022-10-21T03:31:36.759Z,0
2022-10-21T03:32:38.287Z,0
2022-10-21T03:33:38.586Z,0
2022-10-21T03:34:38.712Z,0
2022-10-21T03:35:38.843Z,0
2022-10-21T03:36:38.968Z,0
2022-10-21T03:37:39.090Z,0
2022-10-21T03:38:39.217Z,0
2022-10-21T03:39:39.353Z,0
2022-10-21T03:40:39.475Z,0
2022-10-21T03:41:39.587Z,0
2022-10-21T03:42:41.427Z,0
2022-10-21T03:43:41.746Z,0
2022-10-21T03:44:41.889Z,0
2022-10-21T03:45:42.017Z,0
2022-10-21T03:46:42.144Z,0
2022-10-21T03:47:42.266Z,0
2022-10-21T03:48:42.393Z,0.14
2022-10-21T03:49:42.520Z,0
2022-10-21T03:50:42.643Z,0
2022-10-21T03:51:42.769Z,0
2022-10-21T03:52:42.891Z,0
2022-10-21T03:53:44.230Z,0
2022-10-21T03:54:44.387Z,0
2022-10-21T03:55:44.518Z,0
2022-10-21T03:56:44.643Z,0
2022-10-21T03:57:44.783Z,0
2022-10-21T03:58:44.910Z,0
2022-10-21T03:59:45.034Z,0
2022-10-21T04:00:45.167Z,0
2022-10-21T04:01:45.459Z,0
2022-10-21T04:02:45.609Z,0
2022-10-21T04:03:45.742Z,0
2022-10-21T04:04:45.868Z,0
2022-10-21T04:05:45.997Z,0
2022-10-21T04:06:46.125Z,0
2022-10-21T04:07:53.709Z,0
2022-10-21T04:08:54.063Z,0
2022-10-21T04:09:54.236Z,0
2022-10-21T04:10:57.475Z,0
2022-10-21T04:11:57.602Z,0
2022-10-21T04:12:57.724Z,0
2022-10-21T04:13:57.844Z,0
2022-10-21T04:14:57.969Z,0
2022-10-21T04:15:58.079Z,0
2022-10-21T04:17:08.193Z,0
2022-10-21T04:18:08.340Z,0
2022-10-21T04:19:08.470Z,0
2022-10-21T04:20:08.598Z,0
2022-10-21T04:21:08.737Z,0
2022-10-21T04:22:08.869Z,0
2022-10-21T04:23:08.994Z,0
2022-10-21T04:24:09.117Z,0
2022-10-21T04:25:09.246Z,0
2022-10-21T04:26:09.389Z,0
2022-10-21T04:27:09.515Z,0
2022-10-21T04:28:09.639Z,0
2022-10-21T04:29:09.765Z,0
2022-10-21T04:30:09.893Z,0
2022-10-21T04:31:10.030Z,0
2022-10-21T04:32:10.157Z,0
2022-10-21T04:33:10.296Z,0
2022-10-21T04:34:10.422Z,0
2022-10-21T04:35:10.547Z,0
2022-10-21T04:36:10.675Z,0
2022-10-21T04:37:10.801Z,0
2022-10-21T04:38:10.935Z,0
2022-10-21T04:39:11.066Z,0
2022-10-21T04:40:11.216Z,0
2022-10-21T04:41:11.340Z,0
2022-10-21T04:42:11.470Z,0
2022-10-21T04:43:11.594Z,0
2022-10-21T04:44:11.721Z,0
2022-10-21T04:45:11.850Z,0
2022-10-21T04:46:12.319Z,0
2022-10-21T04:47:12.442Z,0
2022-10-21T04:48:12.566Z,0
2022-10-21T04:49:12.697Z,0
2022-10-21T04:50:12.820Z,0
2022-10-21T04:51:12.950Z,0.12
2022-10-21T04:52:13.075Z,0.29
2022-10-21T04:53:13.219Z,0.39
2022-10-21T04:54:13.344Z,0.47
2022-10-21T04:55:13.463Z,0.42
2022-10-21T04:56:13.590Z,0
2022-10-21T04:57:13.725Z,0
2022-10-21T04:58:22.146Z,0
2022-10-21T04:59:22.635Z,0
2022-10-21T05:00:22.759Z,0
2022-10-21T05:01:23.145Z,0
2022-10-21T05:02:25.916Z,0
2022-10-21T05:03:26.044Z,0
2022-10-21T05:04:26.171Z,0
2022-10-21T05:05:26.305Z,0
2022-10-21T05:06:26.431Z,0
2022-10-21T05:07:26.553Z,0
2022-10-21T05:08:26.675Z,0
2022-10-21T05:09:26.796Z,0
2022-10-21T05:10:26.927Z,0
2022-10-21T05:11:27.061Z,0
2022-10-21T05:12:27.347Z,0
2022-10-21T05:13:27.492Z,0
2022-10-21T05:14:27.630Z,0
2022-10-21T05:15:27.750Z,0
2022-10-21T05:16:27.873Z,0
2022-10-21T05:17:28.002Z,0
2022-10-21T05:18:28.126Z,0
2022-10-21T05:19:31.669Z,0
2022-10-21T05:20:31.802Z,0
2022-10-21T05:21:32.031Z,0
2022-10-21T05:22:32.175Z,0
2022-10-21T05:23:32.306Z,0
2022-10-21T05:24:32.453Z,0
2022-10-21T05:25:34.714Z,0
2022-10-21T05:26:34.840Z,0
2022-10-21T05:27:34.967Z,0
2022-10-21T05:28:35.091Z,0
2022-10-21T05:29:35.216Z,0
2022-10-21T05:30:35.546Z,0
2022-10-21T05:31:35.751Z,0
2022-10-21T05:32:36.833Z,0
2022-10-21T05:33:37.227Z,0
2022-10-21T05:34:37.354Z,0
2022-10-21T05:35:37.483Z,0
2022-10-21T05:36:37.618Z,0
2022-10-21T05:37:37.755Z,0
2022-10-21T05:38:37.891Z,0
2022-10-21T05:39:38.135Z,0
2022-10-21T05:40:38.307Z,0
2022-10-21T05:41:38.441Z,0
2022-10-21T05:42:39.543Z,0
2022-10-21T05:43:39.796Z,0
2022-10-21T05:44:39.926Z,0
2022-10-21T05:45:40.055Z,0
2022-10-21T05:46:40.197Z,0
2022-10-21T05:47:40.325Z,0
2022-10-21T05:48:40.635Z,0
2022-10-21T05:49:40.796Z,0
2022-10-21T05:50:40.925Z,0
2022-10-21T05:51:41.052Z,0
2022-10-21T05:52:42.104Z,0
2022-10-21T05:53:42.300Z,0
2022-10-21T05:54:42.423Z,0
2022-10-21T05:55:42.558Z,0
2022-10-21T05:56:42.704Z,0
2022-10-21T05:57:43.026Z,0
2022-10-21T05:58:43.171Z,0
2022-10-21T05:59:43.329Z,0
2022-10-21T06:00:43.758Z,0
2022-10-21T06:01:43.918Z,0
2022-10-21T06:02:44.046Z,0
2022-10-21T06:03:44.172Z,0
2022-10-21T06:04:44.306Z,0
2022-10-21T06:05:44.435Z,0
2022-10-21T06:06:44.674Z,0
2022-10-21T06:07:44.839Z,0
2022-10-21T06:08:45.195Z,0
2022-10-21T06:09:45.372Z,0
2022-10-21T06:10:45.865Z,0
2022-10-21T06:11:45.996Z,0.37
2022-10-21T06:12:46.116Z,0
2022-10-21T06:13:46.242Z,0.41
2022-10-21T06:14:46.370Z,1.04
2022-10-21T06:15:51.291Z,0.26
2022-10-21T06:16:51.434Z,2.04
2022-10-21T06:17:51.566Z,0.75
2022-10-21T06:18:51.705Z,1.12
2022-10-21T06:19:51.840Z,1.33
2022-10-21T06:20:51.977Z,0.65
2022-10-21T06:21:52.117Z,0.6
2022-10-21T06:22:52.255Z,1.01
2022-10-21T06:23:52.391Z,1.08
2022-10-21T06:24:52.522Z,0.79
2022-10-21T06:25:52.658Z,0.5
2022-10-21T06:26:52.788Z,0.66
2022-10-21T06:27:52.914Z,0.63
2022-10-21T06:28:53.047Z,0.43
2022-10-21T06:29:53.177Z,0
2022-10-21T06:30:53.300Z,0.11
2022-10-21T06:31:53.424Z,0.29
2022-10-21T06:32:53.553Z,1
2022-10-21T06:33:53.691Z,1.25
2022-10-21T06:34:53.845Z,1.16
2022-10-21T06:35:53.979Z,1.04
2022-10-21T06:36:54.117Z,0.23
2022-10-21T06:37:54.341Z,0.95
2022-10-21T06:38:54.501Z,1.12
2022-10-21T06:39:54.633Z,0
2022-10-21T06:40:54.843Z,0
2022-10-21T06:41:54.984Z,0
2022-10-21T06:42:55.125Z,0
2022-10-21T06:43:55.319Z,0
2022-10-21T06:45:00.662Z,0.29
2022-10-21T06:46:00.820Z,0.7
2022-10-21T06:47:00.940Z,0.38
2022-10-21T06:48:01.068Z,0.41
2022-10-21T06:49:01.193Z,1.2
2022-10-21T06:50:01.318Z,1.33
2022-10-21T06:51:01.442Z,1.41
2022-10-21T06:52:01.580Z,0.8
2022-10-21T06:53:01.714Z,0
2022-10-21T06:54:01.842Z,0
2022-10-21T06:55:01.981Z,0
2022-10-21T06:56:02.121Z,0
2022-10-21T06:57:02.255Z,0
2022-10-21T06:58:02.379Z,0
2022-10-21T06:59:02.508Z,0
2022-10-21T07:00:02.629Z,0
2022-10-21T07:01:02.753Z,0
2022-10-21T07:02:02.884Z,0
2022-10-21T07:03:03.005Z,0.16
2022-10-21T07:04:03.156Z,0.64
2022-10-21T07:05:03.282Z,1.12
2022-10-21T07:06:03.406Z,0.81
2022-10-21T07:07:03.552Z,1.66
2022-10-21T07:08:03.683Z,0.58
2022-10-21T07:09:04.102Z,0.45
2022-10-21T07:10:04.287Z,1.25
2022-10-21T07:11:04.420Z,0.53
2022-10-21T07:12:04.546Z,1.29
2022-10-21T07:13:04.671Z,1.35
2022-10-21T07:14:04.838Z,0.85
2022-10-21T07:15:04.993Z,1.25
2022-10-21T07:16:05.136Z,0.72
2022-10-21T07:17:05.266Z,0.29
2022-10-21T07:18:05.390Z,0.13
2022-10-21T07:19:05.516Z,0
2022-10-21T07:20:05.718Z,0.54
2022-10-21T07:21:05.864Z,0
2022-10-21T07:22:06.002Z,0
2022-10-21T07:23:06.128Z,0.64
2022-10-21T07:24:06.249Z,0
2022-10-21T07:25:06.384Z,1.18
2022-10-21T07:26:06.508Z,1.75
2022-10-21T07:27:06.626Z,0.33
2022-10-21T07:28:06.760Z,0
2022-10-21T07:29:06.883Z,0
2022-10-21T07:30:07.012Z,0.48
2022-10-21T07:31:07.135Z,1.56
2022-10-21T07:32:07.258Z,1.31
2022-10-21T07:33:07.402Z,1.08
2022-10-21T07:34:07.532Z,0.18
2022-10-21T07:35:07.660Z,0
2022-10-21T07:36:07.779Z,0
2022-10-21T07:37:07.922Z,0
2022-10-21T07:38:08.059Z,0
2022-10-21T07:39:08.188Z,0
2022-10-21T07:40:08.317Z,0.12
2022-10-21T07:41:08.442Z,0
2022-10-21T07:42:08.567Z,0
2022-10-21T07:43:08.852Z,0
2022-10-21T07:44:09.064Z,0.27
2022-10-21T07:45:09.186Z,0.35
2022-10-21T07:46:09.324Z,0.58
2022-10-21T07:47:09.456Z,0.85
2022-10-21T07:48:09.578Z,0
2022-10-21T07:49:09.709Z,0.66
2022-10-21T07:50:09.833Z,0
2022-10-21T07:51:09.961Z,1.2
2022-10-21T07:52:10.223Z,0.57
2022-10-21T07:53:13.994Z,0.79
2022-10-21T07:54:14.380Z,1.43
2022-10-21T07:55:14.545Z,0.37
2022-10-21T07:56:14.669Z,1.75
2022-10-21T07:57:14.788Z,1.58
2022-10-21T07:58:14.915Z,1.19
2022-10-21T07:59:15.038Z,1.65
2022-10-21T08:00:15.165Z,1.62
2022-10-21T08:01:15.583Z,1.42
2022-10-21T08:02:15.774Z,3
2022-10-21T08:03:15.898Z,1
2022-10-21T08:04:16.030Z,2.16
2022-10-21T08:05:16.163Z,2.12
2022-10-21T08:06:16.292Z,1.66
2022-10-21T08:07:16.412Z,1.53
2022-10-21T08:08:16.548Z,1.72
2022-10-21T08:09:17.061Z,2.21
2022-10-21T08:10:17.301Z,1.38
2022-10-21T08:11:17.431Z,1
2022-10-21T08:12:17.568Z,1.35
2022-10-21T08:13:17.699Z,0.41
2022-10-21T08:14:17.830Z,0.54
2022-10-21T08:15:17.965Z,0.83
2022-10-21T08:16:18.096Z,2.43
2022-10-21T08:17:18.243Z,1.85
2022-10-21T08:18:18.383Z,4.66
2022-10-21T08:19:18.512Z,2.82
2022-10-21T08:20:18.661Z,1.16
2022-10-21T08:21:18.791Z,2.03
2022-10-21T08:22:18.915Z,2.29
2022-10-21T08:23:19.042Z,0.67
2022-10-21T08:24:19.174Z,1.12
2022-10-21T08:25:19.299Z,0.84
2022-10-21T08:26:19.441Z,0.79
2022-10-21T08:27:19.566Z,0.87
2022-10-21T08:28:19.692Z,1
2022-10-21T08:29:19.819Z,1.58
2022-10-21T08:30:20.181Z,0.23
2022-10-21T08:31:20.347Z,1.62
2022-10-21T08:32:20.467Z,0.96
2022-10-21T08:33:20.714Z,0.25
2022-10-21T08:34:20.841Z,0.58
2022-10-21T08:35:20.975Z,0
2022-10-21T08:36:21.112Z,0
2022-10-21T08:37:25.935Z,0
2022-10-21T08:38:26.066Z,0
2022-10-21T08:39:26.203Z,0
2022-10-21T08:40:26.326Z,0.37
2022-10-21T08:41:26.451Z,0.37
2022-10-21T08:42:26.583Z,0
2022-10-21T08:43:26.711Z,0
2022-10-21T08:44:26.842Z,0
2022-10-21T08:45:26.975Z,0.7
2022-10-21T08:46:27.113Z,0
2022-10-21T08:47:27.245Z,0.41
2022-10-21T08:48:27.367Z,0.18
2022-10-21T08:49:31.165Z,0
2022-10-21T08:50:31.296Z,0
2022-10-21T08:51:31.448Z,0
2022-10-21T08:52:31.575Z,0
2022-10-21T08:53:31.706Z,0.29
2022-10-21T08:54:31.830Z,0
2022-10-21T08:55:31.967Z,0.13
2022-10-21T08:56:32.093Z,1.29
2022-10-21T08:57:32.225Z,0.8
2022-10-21T08:58:32.366Z,0.53
2022-10-21T08:59:32.506Z,0.66
2022-10-21T09:00:32.635Z,0.66
2022-10-21T09:01:32.759Z,1.37
2022-10-21T09:02:33.068Z,0.4
2022-10-21T09:03:33.220Z,1.45
2022-10-21T09:04:33.345Z,1.29
2022-10-21T09:05:33.473Z,0.49
2022-10-21T09:06:33.597Z,1.29
2022-10-21T09:07:33.720Z,0.45
2022-10-21T09:08:33.996Z,1.37
2022-10-21T09:09:34.149Z,0.19
2022-10-21T09:10:34.280Z,0.6
2022-10-21T09:11:34.408Z,0
2022-10-21T09:12:34.564Z,1
2022-10-21T09:13:34.700Z,2.79
2022-10-21T09:14:34.835Z,1.12
2022-10-21T09:15:34.961Z,1.64
2022-10-21T09:16:35.082Z,0.56
2022-10-21T09:17:35.588Z,0.41
2022-10-21T09:18:35.844Z,0.33
2022-10-21T09:19:35.972Z,0
2022-10-21T09:20:36.091Z,0
2022-10-21T09:21:36.219Z,0
2022-10-21T09:22:36.353Z,0
2022-10-21T09:23:36.482Z,0
2022-10-21T09:24:36.625Z,0
2022-10-21T09:25:36.752Z,0
2022-10-21T09:26:36.877Z,0
2022-10-21T09:27:57.560Z,0
2022-10-21T09:28:57.755Z,0
2022-10-21T09:29:57.883Z,0
2022-10-21T09:30:58.011Z,0
2022-10-21T09:32:02.992Z,0
2022-10-21T09:33:03.351Z,0.41
2022-10-21T09:34:03.578Z,0.95
2022-10-21T09:35:03.722Z,0
2022-10-21T09:36:03.844Z,0
2022-10-21T09:37:03.971Z,0
2022-10-21T09:38:04.103Z,0
2022-10-21T09:39:04.231Z,0
2022-10-21T09:40:04.368Z,0
2022-10-21T09:41:04.498Z,0
2022-10-21T09:42:46.703Z,0
2022-10-21T09:43:47.040Z,0
2022-10-21T09:44:47.173Z,0
2022-10-21T09:45:47.304Z,0
2022-10-21T09:46:47.437Z,0
2022-10-21T09:47:47.563Z,0
2022-10-21T09:50:06.701Z,0
2022-10-21T09:51:07.338Z,0
2022-10-21T09:52:07.477Z,0
2022-10-21T09:53:07.611Z,0
2022-10-21T09:54:07.742Z,0
2022-10-21T09:55:07.870Z,0
2022-10-21T09:56:08.002Z,0
2022-10-21T09:57:08.132Z,0
2022-10-21T09:58:08.258Z,0
2022-10-21T09:59:08.402Z,0.12
2022-10-21T10:00:14.452Z,0.1
2022-10-21T10:01:14.661Z,0
2022-10-21T10:02:15.152Z,0
2022-10-21T10:03:15.369Z,0
2022-10-21T10:04:15.503Z,0
2022-10-21T10:05:15.631Z,0
2022-10-21T10:06:15.761Z,0
2022-10-21T10:07:15.892Z,0
2022-10-21T10:08:16.016Z,0
2022-10-21T10:09:16.149Z,0
2022-10-21T10:10:16.278Z,0
2022-10-21T10:11:16.418Z,0.83
2022-10-21T10:12:16.549Z,0.47
2022-10-21T10:13:16.679Z,0.17
2022-10-21T10:14:16.832Z,0
2022-10-21T10:15:16.960Z,1.84
2022-10-21T10:16:17.122Z,0.45
2022-10-21T10:17:17.244Z,1.7
2022-10-21T10:18:17.371Z,0.75
2022-10-21T10:19:17.501Z,1.04
2022-10-21T10:20:17.634Z,1.03
2022-10-21T10:21:17.810Z,0
2022-10-21T10:22:17.941Z,0
2022-10-21T10:23:18.071Z,0
2022-10-21T10:24:18.205Z,0
2022-10-21T10:25:18.331Z,0
2022-10-21T10:26:18.468Z,0
2022-10-21T10:27:18.604Z,0
2022-10-21T10:28:18.747Z,0
2022-10-21T10:29:18.889Z,0
2022-10-21T10:30:19.276Z,0.87
2022-10-21T10:31:19.497Z,0
2022-10-21T10:32:19.621Z,0
2022-10-21T10:33:19.746Z,0
2022-10-21T10:34:19.872Z,0.54
2022-10-21T10:35:20.011Z,0.54
2022-10-21T10:36:20.151Z,0
2022-10-21T10:37:20.278Z,0
2022-10-21T10:38:20.405Z,1.04
2022-10-21T10:39:20.528Z,0
2022-10-21T10:40:20.651Z,0
2022-10-21T10:41:20.792Z,0
2022-10-21T10:42:20.942Z,0
2022-10-21T10:43:21.072Z,0.12
2022-10-21T10:44:21.200Z,0
2022-10-21T10:45:21.421Z,0
2022-10-21T10:46:21.590Z,0
2022-10-21T10:47:21.724Z,0
2022-10-21T10:48:21.862Z,0
2022-10-21T10:49:21.991Z,0
2022-10-21T10:50:22.118Z,0
2022-10-21T10:51:22.286Z,0
2022-10-21T10:52:22.469Z,0
2022-10-21T10:53:22.601Z,0
2022-10-21T10:54:22.713Z,0
2022-10-21T10:55:22.838Z,0
2022-10-21T10:56:22.966Z,0
2022-10-21T10:57:52.117Z,0
2022-10-21T10:58:58.584Z,0
2022-10-21T10:59:58.721Z,0
2022-10-21T11:00:59.039Z,0
2022-10-21T11:01:59.202Z,0
2022-10-21T11:02:59.461Z,0
2022-10-21T11:03:59.581Z,0
2022-10-21T11:04:59.711Z,0
2022-10-21T11:05:59.838Z,0
2022-10-21T11:06:59.964Z,0
2022-10-21T11:08:00.161Z,0
2022-10-21T11:09:00.517Z,0
2022-10-21T11:10:00.675Z,0.22
2022-10-21T11:11:00.803Z,0.17
2022-10-21T11:12:00.932Z,0
2022-10-21T11:13:01.080Z,0
2022-10-21T11:14:01.334Z,0
2022-10-21T11:15:01.480Z,0
2022-10-21T11:16:01.722Z,0
2022-10-21T11:17:01.883Z,0
2022-10-21T11:18:25.472Z,0
2022-10-21T11:19:25.646Z,0
2022-10-21T11:20:25.770Z,0
2022-10-21T11:21:25.906Z,0
2022-10-21T11:22:26.035Z,0
2022-10-21T11:23:26.159Z,0
2022-10-21T11:24:26.290Z,0
2022-10-21T11:25:26.432Z,0
2022-10-21T11:26:26.558Z,0
2022-10-21T11:27:26.685Z,0
2022-10-21T11:28:26.827Z,0
2022-10-21T11:29:26.959Z,0
2022-10-21T11:30:27.089Z,0
2022-10-21T11:31:27.214Z,0
2022-10-21T11:32:27.344Z,0
2022-10-21T11:33:27.484Z,0
2022-10-21T11:34:27.613Z,0
2022-10-21T11:35:27.737Z,0
2022-10-21T11:36:27.862Z,0
2022-10-21T11:37:27.988Z,0
2022-10-21T11:38:28.154Z,0
2022-10-21T11:39:28.324Z,0
2022-10-21T11:40:28.466Z,0
2022-10-21T11:41:28.703Z,0
2022-10-21T11:42:28.835Z,0
2022-10-21T11:43:28.960Z,0
2022-10-21T11:44:29.825Z,0
2022-10-21T11:45:29.972Z,0
2022-10-21T11:46:30.105Z,0
2022-10-21T11:47:30.237Z,0
2022-10-21T11:48:30.424Z,0
2022-10-21T11:49:37.473Z,0
2022-10-21T11:50:37.633Z,0
2022-10-21T11:51:37.769Z,0
2022-10-21T11:52:39.140Z,0
2022-10-21T11:53:39.565Z,0
2022-10-21T11:55:10.816Z,0
2022-10-21T11:56:11.112Z,0
2022-10-21T11:57:11.239Z,0
2022-10-21T11:58:11.374Z,0
2022-10-21T11:59:11.725Z,0
2022-10-21T12:00:11.898Z,0
2022-10-21T12:01:12.052Z,0
2022-10-21T12:02:12.286Z,0
2022-10-21T12:03:12.465Z,0
2022-10-21T12:04:12.591Z,0
2022-10-21T12:05:12.719Z,0
2022-10-21T12:06:12.847Z,0
2022-10-21T12:07:12.983Z,0
2022-10-21T12:08:13.363Z,0
2022-10-21T12:09:13.564Z,0
2022-10-21T12:10:13.693Z,0
2022-10-21T12:11:13.822Z,0
2022-10-21T12:12:14.007Z,0
2022-10-21T12:13:14.206Z,0
2022-10-21T12:14:14.330Z,0
2022-10-21T12:15:14.477Z,0
2022-10-21T12:16:14.712Z,0
2022-10-21T12:17:14.869Z,0
2022-10-21T12:18:14.995Z,0
2022-10-21T12:19:15.125Z,0
2022-10-21T12:20:16.052Z,0
2022-10-21T12:21:16.190Z,0
2022-10-21T12:22:16.327Z,0.29
2022-10-21T12:23:16.483Z,0
2022-10-21T12:24:16.618Z,0
2022-10-21T12:25:16.750Z,0
2022-10-21T12:26:16.883Z,0
2022-10-21T12:27:17.013Z,0
2022-10-21T12:28:17.169Z,0
2022-10-21T12:29:17.299Z,0
2022-10-21T12:30:17.440Z,0
2022-10-21T12:31:17.577Z,0
2022-10-21T12:32:17.710Z,0
2022-10-21T12:33:17.838Z,0
2022-10-21T12:34:17.960Z,0
2022-10-21T12:35:18.081Z,0
2022-10-21T12:36:18.209Z,0
2022-10-21T12:37:18.338Z,0
2022-10-21T12:38:18.464Z,0
2022-10-21T12:39:18.592Z,0
2022-10-21T12:40:18.720Z,0
2022-10-21T12:41:18.843Z,0
2022-10-21T12:42:18.964Z,0.5
2022-10-21T12:43:19.086Z,0
2022-10-21T12:44:19.210Z,1.45
2022-10-21T12:45:19.336Z,0.62
2022-10-21T12:46:19.461Z,0.21
2022-10-21T12:47:19.593Z,0
2022-10-21T12:48:19.715Z,0
2022-10-21T12:49:19.842Z,0
2022-10-21T12:50:19.979Z,0
2022-10-21T12:51:20.104Z,0.16
2022-10-21T12:52:20.226Z,0
2022-10-21T12:53:20.360Z,0
2022-10-21T12:54:20.485Z,0
2022-10-21T12:55:20.611Z,0
2022-10-21T12:56:20.746Z,0
2022-10-21T12:57:20.873Z,0
2022-10-21T12:58:20.996Z,0
2022-10-21T12:59:21.119Z,0.2
2022-10-21T13:00:21.428Z,0
2022-10-21T13:01:21.771Z,0
2022-10-21T13:02:21.911Z,0
2022-10-21T13:03:22.056Z,0
2022-10-21T13:04:22.183Z,0
2022-10-21T13:05:22.310Z,0
2022-10-21T13:06:22.437Z,0
2022-10-21T13:07:22.560Z,0
2022-10-21T13:08:22.693Z,0
2022-10-21T13:09:22.960Z,0
2022-10-21T13:10:23.113Z,0
2022-10-21T13:11:23.262Z,0
2022-10-21T13:12:23.397Z,0
2022-10-21T13:13:23.523Z,0
2022-10-21T13:14:23.651Z,0
2022-10-21T13:15:23.777Z,0
2022-10-21T13:16:23.910Z,0
2022-10-21T13:17:24.037Z,0
2022-10-21T13:18:24.299Z,0
2022-10-21T13:19:24.442Z,0
2022-10-21T13:20:24.567Z,0
2022-10-21T13:21:24.692Z,0
2022-10-21T13:22:24.818Z,0
2022-10-21T13:23:24.948Z,0
2022-10-21T13:24:25.086Z,0
2022-10-21T13:25:25.222Z,0
2022-10-21T13:26:25.344Z,0
2022-10-21T13:27:25.689Z,0
2022-10-21T13:28:25.854Z,0
2022-10-21T13:29:25.988Z,0
2022-10-21T13:30:26.113Z,0
2022-10-21T13:31:26.357Z,0
2022-10-21T13:32:26.653Z,0
2022-10-21T13:33:27.011Z,0
2022-10-21T13:34:27.333Z,0
2022-10-21T13:35:27.954Z,0
2022-10-21T13:36:28.174Z,0
2022-10-21T13:37:28.305Z,0
2022-10-21T13:38:28.434Z,0
2022-10-21T13:39:28.936Z,0
2022-10-21T13:40:29.335Z,0
2022-10-21T13:41:29.458Z,0
2022-10-21T13:42:29.838Z,0
2022-10-21T13:43:30.134Z,0
2022-10-21T13:44:30.262Z,0
2022-10-21T13:45:30.702Z,0
2022-10-21T13:46:30.880Z,0
2022-10-21T13:47:31.018Z,0
2022-10-21T13:48:31.148Z,0
2022-10-21T13:49:31.278Z,0
2022-10-21T13:50:31.402Z,0
2022-10-21T13:51:31.531Z,0
2022-10-21T13:52:31.661Z,0
2022-10-21T13:53:31.783Z,0
2022-10-21T13:54:32.082Z,0
2022-10-21T13:55:32.227Z,0
2022-10-21T13:56:32.353Z,0
2022-10-21T13:57:32.491Z,0
2022-10-21T13:58:32.627Z,0
2022-10-21T13:59:32.761Z,0
2022-10-21T14:00:32.885Z,0
2022-10-21T14:01:33.095Z,0
2022-10-21T14:02:33.244Z,0
2022-10-21T14:03:33.372Z,0
2022-10-21T14:04:33.502Z,0
2022-10-21T14:05:33.635Z,0
2022-10-21T14:06:33.766Z,0
2022-10-21T14:07:33.898Z,0
2022-10-21T14:08:34.297Z,0
2022-10-21T14:09:34.496Z,0
2022-10-21T14:10:34.632Z,0
2022-10-21T14:11:37.748Z,0
2022-10-21T14:12:39.002Z,0
2022-10-21T14:13:39.329Z,0
2022-10-21T14:14:39.456Z,0
2022-10-21T14:15:39.581Z,0.6
2022-10-21T14:16:39.702Z,0
2022-10-21T14:17:40.652Z,0
2022-10-21T14:18:40.981Z,0
2022-10-21T14:19:41.100Z,0
2022-10-21T14:20:41.235Z,0
2022-10-21T14:21:41.352Z,0
2022-10-21T14:22:42.472Z,0
2022-10-21T14:23:42.667Z,0
2022-10-21T14:24:42.801Z,0
2022-10-21T14:25:42.932Z,0
2022-10-21T14:26:43.063Z,0
2022-10-21T14:27:43.192Z,0
2022-10-21T14:28:43.328Z,0
2022-10-21T14:29:43.452Z,0
2022-10-21T14:30:43.592Z,0
2022-10-21T14:31:46.810Z,0
2022-10-21T14:32:46.933Z,0
2022-10-21T14:33:47.099Z,0